createdAt,value
2018-04-19T00:00:19.057Z,22.80
2018-04-19T00:01:19.301Z,20.20
2018-04-19T00:02:19.544Z,19.60
2018-04-19T00:03:19.789Z,21.60
2018-04-19T00:04:20.033Z,22.30
2018-04-19T00:05:20.276Z,19.00
2018-04-19T00:06:20.521Z,22.90
2018-04-19T00:07:20.764Z,18.90
2018-04-19T00:08:21.014Z,15.50
2018-04-19T00:09:21.253Z,20.00
2018-04-19T00:10:21.497Z,22.70
2018-04-19T00:11:21.741Z,25.00
2018-04-19T00:12:21.984Z,18.40
2018-04-19T00:13:22.229Z,19.20
2018-04-19T00:14:22.472Z,22.80
2018-04-19T00:15:22.717Z,20.80
2018-04-19T00:16:22.962Z,19.10
2018-04-19T00:17:23.206Z,25.80
2018-04-19T00:18:23.449Z,24.30
2018-04-19T00:19:23.692Z,20.00
2018-04-19T00:20:23.936Z,19.70
2018-04-19T00:21:24.177Z,18.90
2018-04-19T00:22:24.422Z,21.50
2018-04-19T00:23:24.663Z,19.20
2018-04-19T00:24:24.908Z,17.70
2018-04-19T00:25:25.152Z,21.50
2018-04-19T00:26:25.396Z,22.40
2018-04-19T00:27:25.640Z,21.30
2018-04-19T00:28:25.882Z,20.50
2018-04-19T00:29:26.125Z,28.10
2018-04-19T00:30:26.370Z,21.20
2018-04-19T00:31:26.614Z,19.20
2018-04-19T00:32:26.857Z,32.70
2018-04-19T00:33:27.101Z,21.10
2018-04-19T00:34:27.375Z,21.30
2018-04-19T00:35:27.588Z,21.20
2018-04-19T00:36:27.834Z,28.00
2018-04-19T00:37:28.075Z,23.90
2018-04-19T00:38:28.319Z,28.20
2018-04-19T00:39:28.563Z,27.50
2018-04-19T00:40:28.805Z,27.40
2018-04-19T00:41:29.049Z,29.40
2018-04-19T00:42:29.296Z,22.70
2018-04-19T00:43:29.537Z,24.10
2018-04-19T00:44:29.783Z,32.20
2018-04-19T00:45:30.029Z,22.00
2018-04-19T00:46:30.269Z,27.60
2018-04-19T00:47:30.511Z,22.80
2018-04-19T00:48:30.758Z,26.40
2018-04-19T00:49:30.995Z,28.80
2018-04-19T00:50:31.240Z,25.80
2018-04-19T00:51:31.484Z,26.90
2018-04-19T00:52:31.730Z,26.60
2018-04-19T00:53:31.972Z,28.00
2018-04-19T00:54:32.216Z,27.60
2018-04-19T00:55:32.458Z,28.40
2018-04-19T00:56:32.703Z,27.80
2018-04-19T00:57:32.947Z,26.20
2018-04-19T00:58:33.190Z,26.70
2018-04-19T00:59:33.434Z,24.40
2018-04-19T01:00:33.677Z,29.70
2018-04-19T01:01:33.920Z,29.00
2018-04-19T01:02:34.166Z,28.50
2018-04-19T01:03:34.410Z,31.60
2018-04-19T01:04:34.651Z,31.90
2018-04-19T01:05:34.895Z,32.70
2018-04-19T01:06:35.140Z,30.00
2018-04-19T01:07:35.382Z,32.20
2018-04-19T01:08:35.626Z,35.90
2018-04-19T01:09:35.871Z,34.60
2018-04-19T01:10:36.112Z,29.10
2018-04-19T01:11:36.355Z,35.70
2018-04-19T01:12:36.598Z,39.10
2018-04-19T01:13:36.841Z,29.80
2018-04-19T01:14:37.082Z,31.80
2018-04-19T01:15:37.326Z,32.90
2018-04-19T01:16:37.569Z,36.20
2018-04-19T01:17:37.811Z,44.80
2018-04-19T01:18:38.054Z,38.60
2018-04-19T01:19:38.298Z,43.20
2018-04-19T01:20:38.541Z,45.80
2018-04-19T01:21:38.782Z,50.20
2018-04-19T01:22:39.027Z,48.60
2018-04-19T01:23:39.268Z,41.30
2018-04-19T01:24:39.514Z,46.20
2018-04-19T01:25:39.753Z,34.60
2018-04-19T01:26:39.995Z,37.90
2018-04-19T01:27:40.240Z,37.50
2018-04-19T01:28:40.478Z,32.20
2018-04-19T01:29:40.722Z,33.60
2018-04-19T01:30:40.963Z,43.80
2018-04-19T01:31:41.206Z,35.90
2018-04-19T01:32:41.450Z,49.50
2018-04-19T01:33:41.694Z,43.20
2018-04-19T01:34:41.936Z,46.00
2018-04-19T01:35:42.178Z,40.30
2018-04-19T01:36:42.420Z,50.10
2018-04-19T01:37:42.664Z,42.60
2018-04-19T01:38:42.952Z,38.80
2018-04-19T01:39:43.144Z,40.80
2018-04-19T01:40:43.386Z,41.70
2018-04-19T01:41:43.629Z,39.00
2018-04-19T01:42:43.869Z,39.50
2018-04-19T01:43:44.111Z,39.40
2018-04-19T01:44:44.355Z,37.80
2018-04-19T01:45:44.597Z,39.60
2018-04-19T01:46:44.839Z,38.80
2018-04-19T01:47:45.081Z,50.40
2018-04-19T01:48:45.325Z,41.80
2018-04-19T01:49:45.567Z,48.60
2018-04-19T01:50:45.809Z,40.60
2018-04-19T01:51:46.052Z,42.60
2018-04-19T01:52:46.342Z,48.20
2018-04-19T01:53:46.536Z,49.30
2018-04-19T01:54:46.780Z,49.50
2018-04-19T01:55:47.022Z,47.20
2018-04-19T01:56:47.269Z,47.10
2018-04-19T01:57:47.507Z,43.00
2018-04-19T01:58:47.752Z,48.40
2018-04-19T01:59:47.991Z,49.90
2018-04-19T02:00:48.237Z,41.60
2018-04-19T02:01:48.475Z,50.00
2018-04-19T02:02:48.717Z,48.80
2018-04-19T02:03:48.957Z,53.40
2018-04-19T02:04:49.189Z,55.00
2018-04-19T02:05:49.430Z,48.80
2018-04-19T02:06:49.672Z,46.50
2018-04-19T02:07:49.915Z,48.00
2018-04-19T02:08:50.156Z,40.80
2018-04-19T02:09:50.398Z,44.30
2018-04-19T02:10:50.641Z,46.40
2018-04-19T02:11:50.883Z,46.60
2018-04-19T02:12:51.124Z,43.50
2018-04-19T02:13:51.366Z,52.90
2018-04-19T02:14:51.609Z,43.90
2018-04-19T02:15:51.850Z,47.30
2018-04-19T02:16:52.095Z,57.50
2018-04-19T02:17:52.332Z,54.20
2018-04-19T02:18:52.575Z,47.00
2018-04-19T02:19:52.817Z,50.60
2018-04-19T02:20:53.058Z,54.40
2018-04-19T02:21:53.305Z,44.90
2018-04-19T02:22:53.541Z,46.30
2018-04-19T02:23:53.781Z,47.60
2018-04-19T02:24:54.025Z,43.60
2018-04-19T02:25:54.265Z,52.40
2018-04-19T02:26:54.507Z,53.70
2018-04-19T02:27:54.749Z,50.10
2018-04-19T02:28:54.991Z,49.40
2018-04-19T02:29:55.232Z,56.60
2018-04-19T02:30:55.474Z,48.40
2018-04-19T02:31:55.714Z,52.20
2018-04-19T02:32:55.954Z,56.10
2018-04-19T02:33:56.196Z,54.20
2018-04-19T02:34:56.440Z,54.10
2018-04-19T02:35:56.676Z,49.20
2018-04-19T02:36:56.916Z,52.40
2018-04-19T02:37:57.160Z,45.30
2018-04-19T02:38:57.399Z,48.40
2018-04-19T02:39:57.640Z,47.20
2018-04-19T02:40:57.886Z,47.10
2018-04-19T02:41:58.123Z,46.90
2018-04-19T02:42:58.363Z,50.90
2018-04-19T02:43:58.604Z,70.20
2018-04-19T02:44:58.845Z,68.60
2018-04-19T02:45:59.087Z,68.20
2018-04-19T02:46:59.327Z,77.40
2018-04-19T02:47:59.569Z,86.20
2018-04-19T02:48:59.809Z,76.00
2018-04-19T02:50:00.052Z,63.80
2018-04-19T02:51:00.293Z,71.60
2018-04-19T02:52:00.535Z,66.50
2018-04-19T02:53:00.780Z,59.80
2018-04-19T02:54:01.019Z,62.80
2018-04-19T02:55:01.260Z,53.40
2018-04-19T02:56:01.502Z,53.70
2018-04-19T02:57:01.747Z,52.90
2018-04-19T02:58:01.986Z,55.10
2018-04-19T02:59:02.226Z,48.60
2018-04-19T03:00:02.468Z,51.60
2018-04-19T03:01:02.711Z,56.70
2018-04-19T03:02:02.951Z,50.80
2018-04-19T03:03:03.193Z,51.30
2018-04-19T03:04:03.437Z,49.20
2018-04-19T03:05:03.673Z,55.30
2018-04-19T03:06:03.925Z,46.70
2018-04-19T03:07:04.157Z,54.00
2018-04-19T03:08:04.400Z,45.00
2018-04-19T03:09:04.641Z,47.10
2018-04-19T03:10:04.883Z,50.80
2018-04-19T03:11:05.128Z,52.80
2018-04-19T03:12:05.365Z,52.70
2018-04-19T03:13:05.605Z,50.20
2018-04-19T03:14:05.850Z,53.10
2018-04-19T03:15:06.090Z,50.80
2018-04-19T03:16:06.329Z,55.50
2018-04-19T03:17:06.570Z,50.90
2018-04-19T03:18:06.815Z,58.70
2018-04-19T03:19:07.052Z,50.50
2018-04-19T03:20:07.294Z,47.80
2018-04-19T03:21:07.538Z,51.50
2018-04-19T03:22:07.778Z,54.30
2018-04-19T03:23:08.020Z,51.90
2018-04-19T03:24:08.262Z,49.20
2018-04-19T03:25:08.503Z,49.30
2018-04-19T03:26:08.737Z,49.60
2018-04-19T03:27:08.977Z,56.30
2018-04-19T03:28:09.218Z,45.70
2018-04-19T03:29:09.461Z,48.00
2018-04-19T03:30:09.716Z,52.70
2018-04-19T03:31:09.959Z,52.40
2018-04-19T03:32:10.199Z,51.40
2018-04-19T03:33:10.439Z,55.90
2018-04-19T03:34:10.681Z,58.90
2018-04-19T03:35:10.926Z,53.50
2018-04-19T03:36:11.166Z,54.10
2018-04-19T03:37:11.412Z,51.90
2018-04-19T03:38:11.649Z,58.00
2018-04-19T03:39:11.893Z,58.30
2018-04-19T03:40:12.136Z,55.60
2018-04-19T03:41:12.377Z,55.80
2018-04-19T03:42:12.623Z,59.10
2018-04-19T03:43:12.858Z,59.30
2018-04-19T03:44:13.099Z,55.40
2018-04-19T03:45:13.343Z,55.30
2018-04-19T03:46:13.582Z,53.40
2018-04-19T03:47:13.830Z,53.90
2018-04-19T03:48:14.069Z,53.20
2018-04-19T03:49:14.320Z,56.30
2018-04-19T03:50:14.567Z,58.50
2018-04-19T03:51:14.814Z,56.30
2018-04-19T03:52:15.055Z,53.00
2018-04-19T03:53:15.299Z,49.70
2018-04-19T03:54:15.547Z,53.30
2018-04-19T03:55:15.787Z,59.30
2018-04-19T03:56:16.053Z,60.20
2018-04-19T03:57:16.316Z,53.30
2018-04-19T03:58:16.564Z,58.80
2018-04-19T03:59:16.803Z,64.80
2018-04-19T04:00:17.047Z,54.60
2018-04-19T04:01:17.301Z,59.70
2018-04-19T04:02:17.544Z,53.20
2018-04-19T04:03:17.785Z,58.90
2018-04-19T04:04:18.024Z,56.80
2018-04-19T04:05:18.300Z,42.70
2018-04-19T04:06:18.542Z,47.20
2018-04-19T04:07:18.782Z,45.80
2018-04-19T04:08:19.024Z,42.60
2018-04-19T04:09:19.267Z,41.70
2018-04-19T04:10:19.499Z,36.10
2018-04-19T04:11:19.750Z,42.70
2018-04-19T04:12:19.989Z,43.10
2018-04-19T04:13:20.228Z,46.70
2018-04-19T04:14:20.472Z,41.10
2018-04-19T04:15:20.711Z,47.00
2018-04-19T04:16:20.953Z,43.50
2018-04-19T04:17:21.202Z,53.20
2018-04-19T04:18:21.444Z,43.40
2018-04-19T04:19:21.686Z,49.20
2018-04-19T04:20:21.927Z,45.50
2018-04-19T04:21:22.170Z,46.90
2018-04-19T04:22:22.408Z,50.40
2018-04-19T04:23:22.655Z,53.90
2018-04-19T04:24:22.899Z,61.30
2018-04-19T04:25:23.137Z,53.20
2018-04-19T04:26:23.381Z,53.60
2018-04-19T04:27:23.626Z,48.00
2018-04-19T04:28:23.864Z,50.30
2018-04-19T04:29:24.149Z,59.50
2018-04-19T04:30:24.356Z,62.20
2018-04-19T04:31:24.600Z,52.90
2018-04-19T04:32:24.840Z,56.40
2018-04-19T04:33:25.088Z,56.20
2018-04-19T04:34:25.365Z,59.20
2018-04-19T04:35:25.582Z,52.20
2018-04-19T04:36:25.804Z,57.20
2018-04-19T04:37:26.044Z,51.60
2018-04-19T04:38:26.286Z,48.20
2018-04-19T04:39:26.525Z,45.00
2018-04-19T04:40:26.767Z,52.40
2018-04-19T04:41:27.008Z,46.50
2018-04-19T04:42:27.249Z,50.90
2018-04-19T04:43:27.493Z,53.30
2018-04-19T04:44:27.733Z,54.00
2018-04-19T04:45:27.983Z,51.90
2018-04-19T04:46:28.216Z,50.60
2018-04-19T04:47:28.457Z,45.80
2018-04-19T04:48:28.696Z,46.90
2018-04-19T04:49:28.944Z,49.60
2018-04-19T04:50:29.178Z,48.00
2018-04-19T04:51:29.418Z,46.40
2018-04-19T04:52:29.664Z,49.70
2018-04-19T04:53:29.905Z,52.50
2018-04-19T04:54:30.147Z,49.10
2018-04-19T04:55:30.389Z,56.50
2018-04-19T04:56:30.627Z,54.30
2018-04-19T04:57:30.871Z,55.90
2018-04-19T04:58:31.111Z,45.90
2018-04-19T04:59:31.351Z,51.80
2018-04-19T05:00:31.590Z,57.80
2018-04-19T05:01:31.829Z,53.70
2018-04-19T05:02:32.077Z,60.00
2018-04-19T05:03:32.318Z,59.00
2018-04-19T05:04:32.560Z,49.40
2018-04-19T05:05:32.800Z,57.40
2018-04-19T05:06:33.034Z,60.40
2018-04-19T05:07:33.295Z,54.50
2018-04-19T05:08:33.524Z,57.00
2018-04-19T05:09:33.764Z,61.20
2018-04-19T05:10:34.006Z,52.50
2018-04-19T05:11:34.246Z,51.60
2018-04-19T05:12:34.490Z,52.30
2018-04-19T05:13:34.732Z,52.90
2018-04-19T05:14:35.012Z,53.40
2018-04-19T05:15:35.210Z,45.30
2018-04-19T05:16:35.446Z,51.50
2018-04-19T05:17:35.700Z,53.40
2018-04-19T05:18:35.944Z,57.30
2018-04-19T05:19:36.186Z,55.90
2018-04-19T05:20:36.427Z,56.60
2018-04-19T05:21:36.665Z,55.40
2018-04-19T05:22:36.906Z,40.00
2018-04-19T05:23:37.153Z,46.90
2018-04-19T05:24:37.413Z,44.70
2018-04-19T05:25:37.637Z,44.60
2018-04-19T05:26:37.872Z,44.60
2018-04-19T05:27:38.127Z,41.70
2018-04-19T05:28:38.367Z,394.60
2018-04-19T05:29:38.615Z,57.20
2018-04-19T05:30:38.865Z,50.50
2018-04-19T05:31:39.166Z,41.70
2018-04-19T05:32:39.353Z,40.80
2018-04-19T05:33:39.595Z,41.20
2018-04-19T05:34:39.839Z,42.00
2018-04-19T05:35:40.082Z,38.20
2018-04-19T05:36:40.336Z,40.50
2018-04-19T05:37:40.565Z,47.80
2018-04-19T05:38:40.804Z,39.30
2018-04-19T05:39:41.049Z,47.90
2018-04-19T05:40:41.290Z,42.30
2018-04-19T05:41:41.533Z,45.00
2018-04-19T05:42:41.776Z,40.40
2018-04-19T05:43:42.018Z,37.30
2018-04-19T05:44:42.262Z,38.00
2018-04-19T05:45:42.503Z,48.10
2018-04-19T05:46:42.746Z,39.80
2018-04-19T05:47:42.992Z,44.10
2018-04-19T05:48:43.232Z,37.60
2018-04-19T05:49:43.474Z,37.00
2018-04-19T05:50:43.721Z,34.30
2018-04-19T05:51:43.961Z,38.50
2018-04-19T05:52:44.209Z,42.00
2018-04-19T05:53:44.451Z,37.00
2018-04-19T05:54:44.698Z,33.80
2018-04-19T05:55:44.947Z,35.90
2018-04-19T05:56:45.186Z,31.60
2018-04-19T05:57:45.430Z,37.40
2018-04-19T05:58:45.673Z,33.60
2018-04-19T05:59:45.918Z,42.60
2018-04-19T06:00:46.164Z,39.40
2018-04-19T06:01:46.409Z,36.40
2018-04-19T06:02:46.652Z,37.30
2018-04-19T06:03:46.897Z,38.30
2018-04-19T06:04:47.143Z,42.50
2018-04-19T06:05:47.386Z,38.50
2018-04-19T06:06:47.629Z,38.70
2018-04-19T06:07:47.873Z,38.60
2018-04-19T06:08:48.118Z,39.10
2018-04-19T06:09:48.363Z,37.10
2018-04-19T06:10:48.606Z,37.80
2018-04-19T06:11:48.853Z,38.20
2018-04-19T06:12:49.097Z,35.60
2018-04-19T06:13:49.342Z,38.20
2018-04-19T06:14:49.592Z,31.00
2018-04-19T06:15:49.839Z,35.50
2018-04-19T06:16:50.073Z,36.80
2018-04-19T06:17:50.318Z,39.00
2018-04-19T06:18:50.563Z,42.70
2018-04-19T06:19:50.808Z,39.00
2018-04-19T06:20:51.051Z,37.90
2018-04-19T06:21:51.319Z,42.30
2018-04-19T06:22:51.548Z,34.80
2018-04-19T06:23:51.791Z,37.80
2018-04-19T06:24:52.090Z,41.20
2018-04-19T06:25:52.281Z,36.20
2018-04-19T06:26:52.527Z,35.20
2018-04-19T06:27:52.778Z,38.40
2018-04-19T06:28:53.016Z,35.50
2018-04-19T06:29:53.246Z,34.40
2018-04-19T06:30:53.507Z,39.00
2018-04-19T06:31:53.758Z,42.10
2018-04-19T06:32:54.002Z,38.80
2018-04-19T06:33:54.247Z,36.30
2018-04-19T06:34:54.494Z,35.80
2018-04-19T06:35:54.778Z,36.00
2018-04-19T06:36:54.981Z,38.30
2018-04-19T06:37:55.226Z,34.40
2018-04-19T06:38:55.472Z,41.00
2018-04-19T06:39:55.718Z,38.80
2018-04-19T06:40:55.965Z,35.30
2018-04-19T06:41:56.214Z,32.50
2018-04-19T06:42:56.470Z,35.30
2018-04-19T06:43:56.707Z,31.00
2018-04-19T06:44:56.949Z,35.90
2018-04-19T06:45:57.198Z,30.40
2018-04-19T06:46:57.449Z,33.80
2018-04-19T06:47:57.686Z,35.10
2018-04-19T06:48:57.935Z,36.60
2018-04-19T06:49:58.180Z,32.60
2018-04-19T06:50:58.431Z,31.20
2018-04-19T06:51:58.683Z,32.60
2018-04-19T06:52:58.930Z,34.30
2018-04-19T06:53:59.176Z,32.10
2018-04-19T06:54:59.424Z,34.10
2018-04-19T06:55:59.675Z,37.60
2018-04-19T06:56:59.927Z,36.60
2018-04-19T06:58:00.175Z,32.00
2018-04-19T06:59:00.420Z,32.80
2018-04-19T07:00:00.669Z,36.10
2018-04-19T07:01:00.924Z,29.80
2018-04-19T07:02:01.171Z,30.50
2018-04-19T07:03:01.416Z,28.20
2018-04-19T07:04:01.663Z,29.00
2018-04-19T07:05:01.910Z,27.70
2018-04-19T07:06:02.159Z,30.90
2018-04-19T07:07:02.407Z,29.70
2018-04-19T07:08:02.661Z,31.20
2018-04-19T07:09:02.909Z,31.60
2018-04-19T07:10:03.156Z,32.30
2018-04-19T07:11:03.403Z,27.90
2018-04-19T07:12:03.653Z,26.60
2018-04-19T07:13:03.897Z,29.60
2018-04-19T07:14:04.148Z,25.00
2018-04-19T07:15:04.399Z,21.10
2018-04-19T07:16:04.647Z,21.30
2018-04-19T07:17:04.894Z,23.60
2018-04-19T07:18:05.143Z,21.80
2018-04-19T07:19:05.396Z,18.20
2018-04-19T07:20:05.649Z,22.40
2018-04-19T07:21:05.892Z,23.70
2018-04-19T07:22:06.145Z,20.40
2018-04-19T07:23:06.399Z,21.50
2018-04-19T07:24:06.647Z,21.40
2018-04-19T07:25:06.896Z,21.40
2018-04-19T07:26:07.147Z,22.80
2018-04-19T07:27:07.395Z,22.60
2018-04-19T07:28:07.648Z,18.10
2018-04-19T07:29:07.903Z,21.00
2018-04-19T07:30:08.152Z,18.90
2018-04-19T07:31:08.404Z,17.90
2018-04-19T07:32:08.678Z,19.10
2018-04-19T07:33:08.916Z,20.70
2018-04-19T07:34:09.155Z,15.80
2018-04-19T07:35:09.411Z,14.90
2018-04-19T07:36:09.660Z,13.80
2018-04-19T07:37:09.912Z,16.80
2018-04-19T07:38:10.161Z,16.60
2018-04-19T07:39:10.413Z,16.60
2018-04-19T07:40:10.664Z,13.70
2018-04-19T07:41:10.915Z,16.50
2018-04-19T07:42:11.167Z,17.80
2018-04-19T07:43:11.419Z,16.50
2018-04-19T07:44:11.672Z,17.10
2018-04-19T07:45:11.925Z,14.50
2018-04-19T07:46:12.178Z,22.80
2018-04-19T07:47:12.431Z,13.10
2018-04-19T07:48:12.685Z,16.70
2018-04-19T07:49:12.936Z,11.30
2018-04-19T07:50:13.189Z,13.10
2018-04-19T07:51:13.450Z,13.70
2018-04-19T07:52:13.698Z,19.70
2018-04-19T07:53:13.953Z,15.90
2018-04-19T07:54:14.205Z,18.40
2018-04-19T07:55:14.462Z,13.90
2018-04-19T07:56:14.712Z,11.10
2018-04-19T07:57:14.973Z,12.40
2018-04-19T07:58:15.218Z,14.30
2018-04-19T07:59:15.472Z,11.80
2018-04-19T08:00:15.726Z,11.90
2018-04-19T08:01:15.981Z,13.30
2018-04-19T08:02:16.237Z,11.80
2018-04-19T08:03:16.489Z,9.50
2018-04-19T08:04:16.746Z,12.70
2018-04-19T08:05:17.043Z,11.60
2018-04-19T08:06:17.256Z,11.50
2018-04-19T08:07:17.511Z,14.50
2018-04-19T08:08:17.764Z,10.20
2018-04-19T08:09:18.020Z,13.40
2018-04-19T08:10:18.275Z,9.50
2018-04-19T08:11:18.544Z,10.60
2018-04-19T08:12:18.784Z,11.60
2018-04-19T08:13:19.070Z,12.10
2018-04-19T08:14:19.297Z,10.60
2018-04-19T08:15:19.549Z,9.90
2018-04-19T08:16:19.809Z,11.30
2018-04-19T08:17:20.061Z,11.80
2018-04-19T08:18:20.315Z,13.90
2018-04-19T08:19:20.571Z,11.00
2018-04-19T08:20:20.832Z,9.50
2018-04-19T08:21:21.082Z,11.20
2018-04-19T08:22:21.337Z,11.40
2018-04-19T08:23:21.594Z,11.90
2018-04-19T08:24:21.850Z,11.10
2018-04-19T08:25:22.107Z,9.70
2018-04-19T08:26:22.362Z,8.50
2018-04-19T08:27:22.618Z,9.10
2018-04-19T08:28:22.874Z,11.10
2018-04-19T08:29:23.131Z,11.40
2018-04-19T08:30:23.386Z,5.30
2018-04-19T08:31:23.641Z,6.70
2018-04-19T08:32:23.898Z,11.10
2018-04-19T08:33:24.155Z,6.20
2018-04-19T08:34:24.411Z,8.90
2018-04-19T08:35:24.680Z,6.20
2018-04-19T08:36:24.925Z,8.80
2018-04-19T08:37:25.181Z,8.10
2018-04-19T08:38:25.439Z,7.30
2018-04-19T08:39:25.694Z,10.50
2018-04-19T08:40:25.950Z,8.80
2018-04-19T08:41:26.208Z,6.90
2018-04-19T08:42:26.463Z,8.20
2018-04-19T08:43:26.719Z,7.20
2018-04-19T08:44:26.983Z,10.40
2018-04-19T08:45:27.237Z,7.50
2018-04-19T08:46:27.492Z,5.40
2018-04-19T08:47:27.750Z,6.10
2018-04-19T08:48:28.007Z,8.10
2018-04-19T08:49:28.262Z,6.60
2018-04-19T08:50:28.521Z,6.30
2018-04-19T08:51:28.778Z,6.30
2018-04-19T08:52:29.036Z,6.50
2018-04-19T08:53:29.294Z,6.10
2018-04-19T08:54:29.556Z,8.40
2018-04-19T08:55:29.808Z,6.30
2018-04-19T08:56:30.068Z,6.70
2018-04-19T08:57:30.328Z,6.70
2018-04-19T08:58:30.583Z,7.70
2018-04-19T08:59:30.839Z,6.00
2018-04-19T09:00:31.098Z,7.00
2018-04-19T09:01:31.361Z,7.90
2018-04-19T09:02:31.615Z,7.80
2018-04-19T09:03:31.883Z,8.00
2018-04-19T09:04:32.132Z,7.00
2018-04-19T09:05:32.389Z,9.60
2018-04-19T09:06:32.651Z,13.20
2018-04-19T09:07:32.905Z,10.00
2018-04-19T09:08:33.163Z,7.50
2018-04-19T09:09:33.421Z,7.60
2018-04-19T09:10:33.678Z,6.60
2018-04-19T09:11:33.936Z,8.10
2018-04-19T09:12:34.195Z,6.90
2018-04-19T09:13:34.475Z,12.00
2018-04-19T09:14:34.705Z,8.80
2018-04-19T09:15:34.965Z,8.60
2018-04-19T09:16:35.218Z,9.50
2018-04-19T09:17:35.476Z,10.30
2018-04-19T09:18:35.732Z,7.40
2018-04-19T09:19:35.990Z,8.80
2018-04-19T09:20:36.247Z,10.80
2018-04-19T09:21:36.504Z,6.70
2018-04-19T09:22:36.760Z,13.60
2018-04-19T09:23:37.019Z,9.70
2018-04-19T09:24:37.275Z,6.20
2018-04-19T09:25:37.533Z,7.00
2018-04-19T09:26:37.788Z,8.80
2018-04-19T09:27:38.045Z,7.60
2018-04-19T09:28:38.302Z,8.30
2018-04-19T09:29:38.559Z,8.10
2018-04-19T09:30:38.814Z,6.80
2018-04-19T09:31:39.072Z,8.60
2018-04-19T09:32:39.330Z,6.80
2018-04-19T09:33:39.586Z,9.10
2018-04-19T09:34:39.841Z,10.20
2018-04-19T09:35:40.099Z,9.90
2018-04-19T09:36:40.355Z,7.90
2018-04-19T09:37:40.613Z,6.80
2018-04-19T09:38:40.868Z,8.60
2018-04-19T09:39:41.125Z,6.60
2018-04-19T09:40:41.381Z,7.80
2018-04-19T09:41:41.639Z,8.20
2018-04-19T09:42:41.896Z,9.40
2018-04-19T09:43:42.155Z,7.50
2018-04-19T09:44:42.411Z,10.10
2018-04-19T09:45:42.672Z,8.90
2018-04-19T09:46:42.926Z,9.80
2018-04-19T09:47:43.187Z,11.40
2018-04-19T09:48:43.442Z,9.30
2018-04-19T09:49:43.704Z,7.70
2018-04-19T09:50:43.955Z,8.50
2018-04-19T09:51:44.213Z,7.60
2018-04-19T09:52:44.467Z,8.60
2018-04-19T09:53:44.772Z,9.70
2018-04-19T09:54:44.979Z,6.40
2018-04-19T09:55:45.240Z,7.80
2018-04-19T09:56:45.497Z,10.20
2018-04-19T09:57:45.756Z,8.80
2018-04-19T09:58:46.014Z,12.50
2018-04-19T09:59:46.270Z,9.80
2018-04-19T10:00:46.527Z,9.20
2018-04-19T10:01:46.784Z,10.40
2018-04-19T10:02:47.042Z,9.50
2018-04-19T10:03:47.300Z,9.00
2018-04-19T10:04:47.558Z,8.70
2018-04-19T10:05:47.816Z,8.50
2018-04-19T10:06:48.077Z,9.50
2018-04-19T10:07:48.332Z,10.40
2018-04-19T10:08:48.590Z,8.10
2018-04-19T10:09:48.849Z,8.60
2018-04-19T10:10:49.105Z,9.80
2018-04-19T10:11:49.364Z,8.40
2018-04-19T10:12:49.622Z,6.70
2018-04-19T10:13:49.881Z,8.40
2018-04-19T10:14:50.132Z,9.40
2018-04-19T10:15:50.398Z,8.70
2018-04-19T10:16:50.645Z,8.40
2018-04-19T10:17:50.903Z,8.80
2018-04-19T10:18:51.160Z,7.00
2018-04-19T10:19:51.418Z,9.90
2018-04-19T10:20:51.676Z,9.90
2018-04-19T10:21:51.935Z,7.30
2018-04-19T10:22:52.191Z,7.80
2018-04-19T10:23:52.449Z,7.00
2018-04-19T10:24:52.707Z,7.70
2018-04-19T10:25:52.964Z,7.10
2018-04-19T10:26:53.224Z,6.90
2018-04-19T10:27:53.480Z,5.90
2018-04-19T10:28:53.741Z,7.50
2018-04-19T10:29:54.001Z,6.60
2018-04-19T10:30:54.263Z,6.00
2018-04-19T10:31:54.528Z,7.20
2018-04-19T10:32:54.786Z,6.30
2018-04-19T10:33:55.046Z,6.20
2018-04-19T10:34:55.308Z,6.50
2018-04-19T10:35:55.570Z,9.00
2018-04-19T10:36:55.828Z,6.50
2018-04-19T10:37:56.086Z,5.50
2018-04-19T10:38:56.344Z,7.10
2018-04-19T10:39:56.604Z,6.20
2018-04-19T10:40:56.864Z,7.80
2018-04-19T10:41:57.113Z,5.60
2018-04-19T10:42:57.376Z,6.00
2018-04-19T10:43:57.634Z,5.40
2018-04-19T10:44:57.895Z,4.70
2018-04-19T10:45:58.156Z,4.50
2018-04-19T10:46:58.466Z,8.10
2018-04-19T10:47:58.672Z,8.90
2018-04-19T10:48:58.934Z,4.90
2018-04-19T10:49:59.203Z,6.10
2018-04-19T10:50:59.459Z,10.10
2018-04-19T10:51:59.721Z,7.70
2018-04-19T10:52:59.978Z,8.20
2018-04-19T10:54:00.238Z,4.90
2018-04-19T10:55:00.498Z,5.70
2018-04-19T10:56:00.758Z,4.80
2018-04-19T10:57:01.015Z,4.90
2018-04-19T10:58:01.274Z,4.90
2018-04-19T10:59:01.533Z,5.90
2018-04-19T11:00:01.796Z,10.00
2018-04-19T11:01:02.065Z,7.40
2018-04-19T11:02:02.315Z,5.50
2018-04-19T11:03:02.570Z,6.30
2018-04-19T11:04:02.850Z,7.10
2018-04-19T11:05:03.114Z,7.30
2018-04-19T11:06:03.373Z,7.00
2018-04-19T11:07:03.631Z,4.90
2018-04-19T11:08:03.890Z,9.00
2018-04-19T11:09:04.152Z,4.40
2018-04-19T11:10:04.403Z,4.20
2018-04-19T11:11:04.658Z,6.40
2018-04-19T11:12:04.919Z,8.70
2018-04-19T11:13:05.174Z,6.30
2018-04-19T11:14:05.433Z,5.80
2018-04-19T11:15:05.691Z,3.10
2018-04-19T11:16:05.950Z,7.00
2018-04-19T11:17:06.208Z,4.00
2018-04-19T11:18:06.471Z,7.00
2018-04-19T11:19:06.727Z,5.80
2018-04-19T11:20:06.988Z,6.50
2018-04-19T11:21:07.243Z,7.00
2018-04-19T11:22:07.502Z,4.70
2018-04-19T11:23:07.761Z,12.50
2018-04-19T11:24:08.021Z,6.10
2018-04-19T11:25:08.275Z,5.60
2018-04-19T11:26:08.611Z,7.40
2018-04-19T11:27:08.876Z,5.30
2018-04-19T11:28:09.133Z,3.90
2018-04-19T11:29:09.393Z,3.70
2018-04-19T11:30:09.650Z,4.70
2018-04-19T11:31:09.910Z,3.60
2018-04-19T11:32:10.168Z,9.20
2018-04-19T11:33:10.427Z,8.30
2018-04-19T11:34:10.686Z,7.70
2018-04-19T11:35:10.946Z,4.80
2018-04-19T11:36:11.204Z,3.30
2018-04-19T11:37:11.464Z,4.40
2018-04-19T11:38:11.712Z,4.00
2018-04-19T11:39:11.978Z,3.40
2018-04-19T11:40:12.231Z,2.60
2018-04-19T11:41:12.493Z,5.40
2018-04-19T11:42:12.752Z,5.00
2018-04-19T11:43:13.012Z,4.50
2018-04-19T11:44:13.273Z,4.30
2018-04-19T11:45:13.546Z,4.90
2018-04-19T11:46:13.798Z,5.10
2018-04-19T11:47:14.055Z,3.40
2018-04-19T11:48:14.319Z,3.50
2018-04-19T11:49:14.576Z,5.00
2018-04-19T11:50:14.833Z,4.00
2018-04-19T11:51:15.091Z,3.70
2018-04-19T11:52:15.349Z,5.90
2018-04-19T11:53:15.609Z,6.00
2018-04-19T11:54:15.867Z,2.60
2018-04-19T11:55:16.128Z,5.10
2018-04-19T11:56:16.385Z,4.60
2018-04-19T11:57:16.646Z,4.00
2018-04-19T11:58:16.907Z,7.30
2018-04-19T11:59:17.167Z,4.30
2018-04-19T12:00:17.425Z,4.90
2018-04-19T12:01:17.684Z,4.20
2018-04-19T12:02:17.958Z,3.60
2018-04-19T12:03:18.201Z,2.10
2018-04-19T12:04:18.463Z,1.60
2018-04-19T12:05:18.720Z,6.30
2018-04-19T12:06:18.978Z,4.70
2018-04-19T12:07:19.236Z,5.10
2018-04-19T12:08:19.532Z,2.70
2018-04-19T12:09:19.793Z,2.60
2018-04-19T12:10:20.051Z,2.70
2018-04-19T12:11:20.311Z,3.20
2018-04-19T12:12:20.572Z,2.50
2018-04-19T12:13:20.832Z,2.60
2018-04-19T12:14:21.091Z,3.30
2018-04-19T12:15:21.351Z,4.80
2018-04-19T12:16:21.610Z,4.70
2018-04-19T12:17:21.868Z,2.60
2018-04-19T12:18:22.126Z,3.50
2018-04-19T12:19:22.385Z,2.50
2018-04-19T12:20:22.643Z,3.60
2018-04-19T12:21:22.903Z,5.30
2018-04-19T12:22:23.227Z,3.40
2018-04-19T12:23:23.601Z,3.20
2018-04-19T12:24:23.936Z,2.90
2018-04-19T12:25:24.195Z,3.90
2018-04-19T12:26:24.456Z,1.60
2018-04-19T12:27:24.713Z,3.30
2018-04-19T12:28:24.971Z,1.90
2018-04-19T12:29:25.285Z,3.60
2018-04-19T12:30:25.544Z,2.60
2018-04-19T12:31:25.884Z,2.90
2018-04-19T12:32:26.136Z,1.90
2018-04-19T12:33:26.394Z,3.30
2018-04-19T12:34:26.652Z,2.50
2018-04-19T12:35:26.911Z,4.20
2018-04-19T12:36:27.169Z,1.20
2018-04-19T12:37:27.436Z,2.80
2018-04-19T12:38:27.688Z,3.80
2018-04-19T12:39:27.947Z,3.50
2018-04-19T12:40:28.205Z,1.30
2018-04-19T12:41:28.464Z,2.80
2018-04-19T12:42:28.722Z,3.20
2018-04-19T12:43:29.022Z,2.30
2018-04-19T12:44:29.241Z,6.30
2018-04-19T12:45:29.501Z,2.10
2018-04-19T12:46:29.761Z,2.10
2018-04-19T12:47:30.022Z,2.20
2018-04-19T12:48:30.284Z,1.10
2018-04-19T12:49:30.551Z,3.50
2018-04-19T12:50:30.804Z,2.70
2018-04-19T12:51:31.063Z,3.10
2018-04-19T12:52:31.323Z,0.90
2018-04-19T12:53:31.585Z,1.40
2018-04-19T12:54:31.843Z,2.20
2018-04-19T12:55:32.111Z,4.40
2018-04-19T12:56:32.384Z,3.60
2018-04-19T12:57:32.628Z,1.60
2018-04-19T12:58:32.892Z,1.60
2018-04-19T12:59:33.153Z,2.70
2018-04-19T13:00:33.414Z,1.70
2018-04-19T13:01:33.676Z,1.60
2018-04-19T13:02:33.938Z,1.50
2018-04-19T13:03:34.199Z,2.50
2018-04-19T13:04:34.461Z,3.40